createdAt,value
2022-10-21T00:01:26.874Z,69.11
2022-10-21T00:03:53.989Z,69.18
2022-10-21T00:06:20.998Z,69.03
2022-10-21T00:08:48.137Z,69.14
2022-10-21T00:11:15.232Z,68.93
2022-10-21T00:13:42.708Z,69.23
2022-10-21T00:16:13.588Z,69.11
2022-10-21T00:18:42.268Z,69.39
2022-10-21T00:21:11.007Z,69.23
2022-10-21T00:23:38.408Z,69.34
2022-10-21T00:26:05.450Z,69.13
2022-10-21T00:28:32.882Z,69.26
2022-10-21T00:31:00.171Z,69.30
2022-10-21T00:33:29.238Z,69.30
2022-10-21T00:35:57.678Z,69.40
2022-10-21T00:38:25.145Z,69.31
2022-10-21T00:40:52.389Z,69.41
2022-10-21T00:43:19.437Z,69.58
2022-10-21T00:45:48.631Z,69.45
2022-10-21T00:48:22.080Z,69.59
2022-10-21T00:50:56.010Z,69.48
2022-10-21T00:53:24.136Z,69.52
2022-10-21T00:55:56.669Z,69.54
2022-10-21T00:58:27.552Z,69.58
2022-10-21T01:00:59.227Z,69.74
2022-10-21T01:03:27.855Z,69.61
2022-10-21T01:05:57.788Z,69.60
2022-10-21T01:08:25.876Z,70.05
2022-10-21T01:10:53.376Z,70.17
2022-10-21T01:13:27.251Z,70.14
2022-10-21T01:16:03.531Z,70.13
2022-10-21T01:18:37.978Z,70.09
2022-10-21T01:21:31.372Z,70.33
2022-10-21T01:24:34.427Z,70.28
2022-10-21T01:27:14.402Z,70.40
2022-10-21T01:30:06.254Z,70.64
2022-10-21T01:32:47.537Z,70.66
2022-10-21T01:35:20.786Z,70.84
2022-10-21T01:37:57.332Z,70.61
2022-10-21T01:40:28.126Z,70.78
2022-10-21T01:42:58.022Z,70.77
2022-10-21T01:45:32.859Z,71.13
2022-10-21T01:48:04.013Z,71.15
2022-10-21T01:50:35.298Z,71.19
2022-10-21T01:53:06.483Z,71.28
2022-10-21T01:55:34.399Z,71.14
2022-10-21T01:58:04.084Z,71.29
2022-10-21T02:00:32.634Z,71.38
2022-10-21T02:03:02.006Z,71.40
2022-10-21T02:05:33.345Z,71.53
2022-10-21T02:08:00.669Z,71.64
2022-10-21T02:10:31.325Z,71.40
2022-10-21T02:13:01.737Z,71.60
2022-10-21T02:15:30.260Z,71.65
2022-10-21T02:18:04.502Z,71.62
2022-10-21T02:20:36.200Z,71.57
2022-10-21T02:23:04.149Z,71.69
2022-10-21T02:25:37.336Z,71.78
2022-10-21T02:28:05.544Z,71.61
2022-10-21T02:30:53.099Z,71.65
2022-10-21T02:33:28.233Z,71.62
2022-10-21T02:36:05.166Z,71.66
2022-10-21T02:38:34.035Z,71.78
2022-10-21T02:41:05.985Z,71.77
2022-10-21T02:43:36.767Z,71.78
2022-10-21T02:46:08.523Z,71.74
2022-10-21T02:48:38.316Z,71.81
2022-10-21T02:51:06.569Z,71.75
2022-10-21T02:53:33.889Z,71.81
2022-10-21T02:56:01.754Z,71.77
2022-10-21T02:58:29.377Z,71.66
2022-10-21T03:00:56.918Z,71.89
2022-10-21T03:03:24.270Z,72.14
2022-10-21T03:05:51.804Z,71.99
2022-10-21T03:08:19.334Z,72.40
2022-10-21T03:10:52.933Z,72.36
2022-10-21T03:13:20.715Z,72.35
2022-10-21T03:15:47.808Z,72.34
2022-10-21T03:18:14.863Z,72.33
2022-10-21T03:20:42.213Z,72.41
2022-10-21T03:23:09.307Z,72.45
2022-10-21T03:25:36.435Z,72.29
2022-10-21T03:28:03.909Z,72.29
2022-10-21T03:30:30.918Z,72.51
2022-10-21T03:32:57.999Z,72.56
2022-10-21T03:35:25.351Z,72.40
2022-10-21T03:37:52.439Z,72.61
2022-10-21T03:40:19.920Z,72.80
2022-10-21T03:42:46.914Z,72.99
2022-10-21T03:45:14.364Z,72.80
2022-10-21T03:47:41.402Z,73.04
2022-10-21T03:50:13.899Z,73.10
2022-10-21T03:52:43.604Z,73.17
2022-10-21T03:55:11.366Z,73.20
2022-10-21T03:57:38.951Z,73.20
2022-10-21T04:00:08.589Z,73.10
2022-10-21T04:02:39.987Z,73.05
2022-10-21T04:05:08.578Z,72.94
2022-10-21T04:07:35.681Z,72.93
2022-10-21T04:10:02.736Z,72.88
2022-10-21T04:12:29.796Z,72.90
2022-10-21T04:14:57.005Z,72.94
2022-10-21T04:17:24.022Z,72.78
2022-10-21T04:19:50.943Z,72.69
2022-10-21T04:22:18.143Z,72.89
2022-10-21T04:24:45.239Z,72.79
2022-10-21T04:27:12.638Z,73.04
2022-10-21T04:29:40.080Z,73.10
2022-10-21T04:32:07.289Z,72.98
2022-10-21T04:34:34.293Z,72.98
2022-10-21T04:37:05.071Z,73.13
2022-10-21T04:39:32.998Z,72.95
2022-10-21T04:42:00.327Z,73.19
2022-10-21T04:44:28.157Z,73.10
2022-10-21T04:46:55.385Z,73.19
2022-10-21T04:49:22.694Z,73.17
2022-10-21T04:51:49.849Z,73.21
2022-10-21T04:54:16.933Z,73.17
2022-10-21T04:56:44.081Z,73.12
2022-10-21T04:59:11.421Z,73.10
2022-10-21T05:01:38.683Z,73.18
2022-10-21T05:04:05.775Z,73.10
2022-10-21T05:06:33.118Z,73.19
2022-10-21T05:09:00.558Z,73.04
2022-10-21T05:11:27.658Z,73.05
2022-10-21T05:13:54.817Z,73.03
2022-10-21T05:16:23.972Z,73.00
2022-10-21T05:18:51.576Z,72.96
2022-10-21T05:21:18.602Z,73.00
2022-10-21T05:23:45.658Z,72.96
2022-10-21T05:26:12.764Z,73.03
2022-10-21T05:28:40.027Z,73.19
2022-10-21T05:31:07.182Z,73.29
2022-10-21T05:33:34.422Z,72.90
2022-10-21T05:36:05.123Z,72.84
2022-10-21T05:38:32.504Z,72.91
2022-10-21T05:41:00.514Z,72.76
2022-10-21T05:43:28.387Z,72.48
2022-10-21T05:45:55.894Z,72.27
2022-10-21T05:48:23.136Z,71.93
2022-10-21T05:50:52.803Z,71.47
2022-10-21T05:53:20.052Z,71.28
2022-10-21T05:55:47.552Z,71.04
2022-10-21T05:58:14.629Z,70.26
2022-10-21T06:00:42.113Z,70.18
2022-10-21T06:03:09.801Z,70.17
2022-10-21T06:05:38.268Z,70.26
2022-10-21T06:08:05.644Z,70.23
2022-10-21T06:10:32.623Z,70.42
2022-10-21T06:13:00.310Z,70.50
2022-10-21T06:15:27.353Z,70.64
2022-10-21T06:17:55.501Z,70.53
2022-10-21T06:20:22.862Z,70.66
2022-10-21T06:22:49.893Z,70.67
2022-10-21T06:27:49.682Z,70.78
2022-10-21T06:30:16.875Z,70.80
2022-10-21T06:32:43.971Z,70.75
2022-10-21T06:35:11.469Z,70.62
2022-10-21T06:37:38.908Z,70.58
2022-10-21T06:40:07.633Z,70.54
2022-10-21T06:42:34.724Z,70.56
2022-10-21T06:45:01.786Z,70.35
2022-10-21T06:47:28.884Z,69.72
2022-10-21T06:49:55.969Z,69.33
2022-10-21T06:52:23.163Z,68.88
2022-10-21T06:54:51.249Z,68.24
2022-10-21T06:57:18.249Z,67.22
2022-10-21T06:59:45.281Z,66.59
2022-10-21T07:02:13.229Z,66.01
2022-10-21T07:04:56.524Z,65.73
2022-10-21T07:07:23.851Z,65.06
2022-10-21T07:09:51.070Z,64.61
2022-10-21T07:12:18.244Z,63.68
2022-10-21T07:14:45.520Z,63.79
2022-10-21T07:17:29.763Z,63.73
2022-10-21T07:19:57.357Z,62.81
2022-10-21T07:22:24.453Z,62.65
2022-10-21T07:24:51.723Z,62.67
2022-10-21T07:27:18.916Z,63.12
2022-10-21T07:29:46.189Z,62.32
2022-10-21T07:32:13.290Z,61.97
2022-10-21T07:34:40.416Z,61.28
2022-10-21T07:37:07.548Z,60.89
2022-10-21T07:39:35.227Z,61.00
2022-10-21T07:42:02.413Z,61.09
2022-10-21T07:44:29.638Z,60.97
2022-10-21T07:46:57.092Z,60.95
2022-10-21T07:49:25.459Z,61.02
2022-10-21T07:51:53.957Z,61.87
2022-10-21T07:54:21.619Z,62.40
2022-10-21T07:56:51.527Z,62.69
2022-10-21T07:59:20.247Z,63.12
2022-10-21T08:04:22.561Z,63.47
2022-10-21T08:06:50.875Z,63.36
2022-10-21T08:09:18.845Z,63.12
2022-10-21T08:11:46.000Z,63.57
2022-10-21T08:14:13.857Z,63.64
2022-10-21T08:16:41.315Z,63.78
2022-10-21T08:19:09.185Z,64.34
2022-10-21T08:21:37.523Z,64.88
2022-10-21T08:24:06.243Z,64.81
2022-10-21T08:26:33.867Z,64.89
2022-10-21T08:29:01.143Z,64.50
2022-10-21T08:31:28.160Z,64.52
2022-10-21T08:33:55.481Z,64.56
2022-10-21T08:36:25.089Z,64.45
2022-10-21T08:38:53.190Z,64.54
2022-10-21T08:41:37.384Z,64.55
2022-10-21T08:44:08.549Z,64.52
2022-10-21T08:46:41.133Z,64.27
2022-10-21T08:49:14.688Z,64.18
2022-10-21T08:51:47.478Z,63.83
2022-10-21T08:54:23.476Z,63.62
2022-10-21T08:56:56.499Z,63.92
2022-10-21T08:59:25.366Z,63.80
2022-10-21T09:02:02.582Z,64.25
2022-10-21T09:04:38.156Z,64.24
2022-10-21T09:07:13.313Z,64.21
2022-10-21T09:09:47.317Z,64.06
2022-10-21T09:12:21.537Z,64.38
2022-10-21T09:15:11.225Z,64.74
2022-10-21T09:17:57.698Z,64.65
2022-10-21T09:20:39.200Z,64.08
2022-10-21T09:23:30.172Z,63.67
2022-10-21T09:26:01.666Z,63.27
2022-10-21T09:28:30.264Z,62.42
2022-10-21T09:30:58.955Z,61.87
2022-10-21T09:33:29.969Z,61.87
2022-10-21T09:36:04.809Z,61.51
2022-10-21T09:38:41.280Z,61.16
2022-10-21T09:41:15.749Z,60.27
2022-10-21T09:43:42.902Z,59.80
2022-10-21T09:46:14.507Z,59.19
2022-10-21T09:49:16.219Z,58.96
2022-10-21T09:51:40.260Z,59.25
2022-10-21T09:54:12.816Z,59.43
2022-10-21T09:56:45.049Z,58.86
2022-10-21T09:59:14.289Z,58.92
2022-10-21T10:01:44.743Z,58.81
2022-10-21T10:04:23.292Z,58.94
2022-10-21T10:06:50.879Z,58.42
2022-10-21T10:09:27.132Z,58.21
2022-10-21T10:11:57.509Z,58.08
2022-10-21T10:14:31.217Z,58.35
2022-10-21T10:16:59.714Z,58.43
2022-10-21T10:19:28.836Z,58.70
2022-10-21T10:22:15.264Z,58.49
2022-10-21T10:24:43.656Z,58.55
2022-10-21T10:27:19.212Z,58.46
2022-10-21T10:29:53.851Z,58.33
2022-10-21T10:32:24.261Z,57.92
2022-10-21T10:34:58.835Z,57.27
2022-10-21T10:37:29.155Z,56.42
2022-10-21T10:39:59.235Z,56.21
2022-10-21T10:42:29.354Z,56.20
2022-10-21T10:45:00.478Z,56.26
2022-10-21T10:47:32.871Z,56.63
2022-10-21T10:50:00.139Z,56.63
2022-10-21T10:52:27.879Z,56.35
2022-10-21T10:55:19.199Z,55.59
2022-10-21T10:58:05.913Z,55.62
2022-10-21T11:00:44.157Z,55.57
2022-10-21T11:03:15.970Z,55.53
2022-10-21T11:05:46.202Z,55.28
2022-10-21T11:08:19.337Z,55.10
2022-10-21T11:10:50.161Z,55.06
2022-10-21T11:13:19.376Z,54.45
2022-10-21T11:16:11.549Z,54.15
2022-10-21T11:18:49.359Z,54.53
2022-10-21T11:21:34.222Z,54.06
2022-10-21T11:24:29.946Z,54.42
2022-10-21T11:27:04.490Z,54.30
2022-10-21T11:29:47.658Z,55.13
2022-10-21T11:32:27.763Z,55.43
2022-10-21T11:35:07.052Z,55.74
2022-10-21T11:37:49.289Z,54.96
2022-10-21T11:40:27.697Z,54.79
2022-10-21T11:42:57.762Z,54.50
2022-10-21T11:45:39.171Z,54.13
2022-10-21T11:48:18.353Z,54.39
2022-10-21T11:50:54.686Z,54.44
2022-10-21T11:53:37.800Z,54.21
2022-10-21T11:56:16.391Z,54.14
2022-10-21T11:58:56.867Z,54.52
2022-10-21T12:01:38.626Z,54.98
2022-10-21T12:04:24.534Z,55.39
2022-10-21T12:06:59.611Z,55.39
2022-10-21T12:09:32.021Z,55.99
2022-10-21T12:12:05.901Z,56.38
2022-10-21T12:14:38.019Z,56.48
2022-10-21T12:17:11.837Z,56.69
2022-10-21T12:19:39.575Z,57.01
2022-10-21T12:22:08.708Z,57.24
2022-10-21T12:24:47.698Z,57.53
2022-10-21T12:27:26.714Z,57.67
2022-10-21T12:30:07.009Z,57.78
2022-10-21T12:32:41.979Z,57.88
2022-10-21T12:35:16.111Z,58.05
2022-10-21T12:38:04.573Z,58.31
2022-10-21T12:40:43.786Z,58.51
2022-10-21T12:43:22.559Z,58.63
2022-10-21T12:46:02.399Z,58.82
2022-10-21T12:48:36.793Z,58.79
2022-10-21T12:51:06.934Z,58.98
2022-10-21T12:53:40.035Z,59.25
2022-10-21T12:56:08.831Z,59.29
2022-10-21T12:58:41.427Z,59.40
2022-10-21T13:01:25.817Z,59.58
2022-10-21T13:03:57.789Z,59.69
2022-10-21T13:06:58.133Z,59.93
2022-10-21T13:09:37.475Z,60.15
2022-10-21T13:12:18.683Z,60.36
2022-10-21T13:14:49.368Z,60.57
2022-10-21T13:17:50.232Z,60.81
2022-10-21T13:20:47.564Z,60.83
2022-10-21T13:23:32.541Z,60.96
2022-10-21T13:26:13.948Z,61.03
2022-10-21T13:28:41.266Z,61.08
2022-10-21T13:31:08.876Z,61.04
2022-10-21T13:33:38.619Z,61.06
2022-10-21T13:36:10.297Z,61.03
2022-10-21T13:38:39.405Z,61.21
2022-10-21T13:41:19.791Z,61.27
2022-10-21T13:43:52.752Z,61.42
2022-10-21T13:46:24.503Z,61.51
2022-10-21T13:48:52.185Z,61.54
2022-10-21T13:51:22.722Z,61.70
2022-10-21T13:53:54.183Z,61.86
2022-10-21T13:56:26.399Z,61.94
2022-10-21T13:58:54.099Z,62.06
2022-10-21T14:01:25.623Z,62.14
2022-10-21T14:03:53.774Z,62.20
2022-10-21T14:06:30.964Z,62.41
2022-10-21T14:08:58.864Z,62.48
2022-10-21T14:11:34.797Z,62.53
2022-10-21T14:14:09.829Z,62.51
2022-10-21T14:16:40.695Z,62.59
2022-10-21T14:19:12.415Z,62.68
2022-10-21T14:21:43.902Z,62.69
2022-10-21T14:24:26.120Z,62.68
2022-10-21T14:26:53.941Z,62.70
2022-10-21T14:29:21.709Z,62.82
2022-10-21T14:31:48.996Z,62.86
2022-10-21T14:34:24.878Z,63.01
2022-10-21T14:37:19.622Z,63.05
2022-10-21T14:39:46.837Z,63.22
2022-10-21T14:42:20.739Z,63.18
2022-10-21T14:44:49.886Z,63.34
2022-10-21T14:47:23.480Z,63.40
2022-10-21T14:49:52.843Z,63.36
2022-10-21T14:52:24.378Z,63.36
2022-10-21T14:54:56.028Z,63.44
2022-10-21T14:57:34.198Z,63.40
2022-10-21T15:00:15.632Z,63.46
2022-10-21T15:02:43.065Z,63.47
2022-10-21T15:05:31.781Z,63.44
2022-10-21T15:08:25.991Z,63.46
2022-10-21T15:11:25.644Z,63.67
2022-10-21T15:14:32.118Z,63.74
2022-10-21T15:17:01.463Z,63.89
2022-10-21T15:19:33.193Z,63.87
2022-10-21T15:22:02.715Z,64.05
2022-10-21T15:24:37.351Z,64.05
2022-10-21T15:27:05.924Z,64.16
2022-10-21T15:29:43.579Z,64.21
2022-10-21T15:32:13.759Z,64.26
2022-10-21T15:34:40.876Z,64.23
2022-10-21T15:37:08.533Z,64.36
2022-10-21T15:39:35.775Z,64.46
2022-10-21T15:42:03.619Z,64.57
2022-10-21T15:44:32.539Z,64.69
2022-10-21T15:47:02.797Z,64.73
2022-10-21T15:49:32.826Z,64.90
2022-10-21T15:51:59.996Z,64.98
2022-10-21T15:54:27.109Z,65.04
2022-10-21T15:56:55.681Z,65.14
2022-10-21T15:59:24.610Z,65.10
2022-10-21T16:01:52.611Z,65.15
2022-10-21T16:04:20.284Z,65.25
2022-10-21T16:06:49.089Z,65.30
2022-10-21T16:09:20.513Z,65.41
2022-10-21T16:11:59.059Z,65.67
2022-10-21T16:14:29.529Z,65.64
2022-10-21T16:17:01.042Z,65.73
2022-10-21T16:19:28.863Z,65.75
2022-10-21T16:21:56.404Z,65.66
2022-10-21T16:24:23.634Z,65.66
2022-10-21T16:26:51.953Z,65.71
2022-10-21T16:29:21.731Z,65.73
2022-10-21T16:31:49.045Z,65.79
2022-10-21T16:34:16.269Z,65.76
2022-10-21T16:36:43.465Z,65.85
2022-10-21T16:39:14.701Z,65.96
2022-10-21T16:41:42.302Z,65.96
2022-10-21T16:44:09.702Z,66.07
2022-10-21T16:46:40.072Z,66.17
2022-10-21T16:49:13.054Z,66.33
2022-10-21T16:51:40.635Z,66.36
2022-10-21T16:54:07.991Z,66.38
2022-10-21T16:56:35.115Z,66.44
2022-10-21T16:59:02.131Z,66.52
2022-10-21T17:01:29.650Z,66.48
2022-10-21T17:03:56.885Z,66.58
2022-10-21T17:06:26.301Z,66.71
2022-10-21T17:08:54.946Z,66.80
2022-10-21T17:11:23.838Z,66.91
2022-10-21T17:13:51.623Z,66.94
2022-10-21T17:16:20.272Z,67.00
2022-10-21T17:18:47.823Z,67.03
2022-10-21T17:21:21.714Z,66.92
2022-10-21T17:23:50.099Z,66.97
2022-10-21T17:26:18.407Z,66.89
2022-10-21T17:28:45.508Z,67.02
2022-10-21T17:31:17.437Z,67.05
2022-10-21T17:33:44.728Z,67.07
2022-10-21T17:36:12.770Z,67.17
2022-10-21T17:38:41.957Z,67.19
2022-10-21T17:41:10.012Z,67.28
2022-10-21T17:43:37.236Z,67.29
2022-10-21T17:46:04.470Z,67.31
2022-10-21T17:48:31.573Z,67.37
2022-10-21T17:51:00.932Z,67.41
2022-10-21T17:53:29.022Z,67.42
2022-10-21T17:56:03.702Z,67.36
2022-10-21T17:58:31.675Z,67.49
2022-10-21T18:00:59.436Z,67.62
2022-10-21T18:03:27.263Z,67.66
2022-10-21T18:05:55.761Z,67.67
2022-10-21T18:08:23.238Z,67.69
2022-10-21T18:10:56.613Z,67.90
2022-10-21T18:13:23.774Z,67.92
2022-10-21T18:15:51.556Z,67.96
2022-10-21T18:18:18.961Z,67.98
2022-10-21T18:20:46.015Z,67.99
2022-10-21T18:23:13.648Z,68.12
2022-10-21T18:25:41.542Z,68.15
2022-10-21T18:28:11.342Z,68.11
2022-10-21T18:30:44.042Z,68.28
2022-10-21T18:33:11.415Z,68.30
2022-10-21T18:35:38.676Z,68.38
2022-10-21T18:38:06.072Z,68.40
2022-10-21T18:40:33.643Z,68.43
2022-10-21T18:43:00.662Z,68.63
2022-10-21T18:45:27.770Z,68.59
2022-10-21T18:47:55.691Z,68.63
2022-10-21T18:50:22.682Z,68.71
2022-10-21T18:52:49.767Z,68.71
2022-10-21T18:55:17.041Z,68.72
2022-10-21T18:57:44.133Z,68.83
2022-10-21T19:00:13.366Z,68.76
2022-10-21T19:02:40.480Z,68.76
2022-10-21T19:05:08.710Z,68.90
2022-10-21T19:07:35.902Z,68.92
2022-10-21T19:10:03.325Z,68.92
2022-10-21T19:12:30.364Z,68.92
2022-10-21T19:14:58.137Z,68.98
2022-10-21T19:17:25.451Z,68.99
2022-10-21T19:19:52.679Z,68.93
2022-10-21T19:22:20.197Z,68.95
2022-10-21T19:24:47.899Z,68.94
2022-10-21T19:27:14.930Z,69.07
2022-10-21T19:29:43.581Z,68.95
2022-10-21T19:32:12.969Z,69.04
2022-10-21T19:34:40.185Z,69.06
2022-10-21T19:37:09.697Z,69.08
2022-10-21T19:39:36.798Z,69.13
2022-10-21T19:42:04.576Z,69.05
2022-10-21T19:44:31.668Z,68.98
2022-10-21T19:46:58.629Z,69.09
2022-10-21T19:49:25.776Z,69.08
2022-10-21T19:51:53.487Z,68.95
2022-10-21T19:54:20.641Z,68.94
2022-10-21T19:56:47.765Z,68.92
2022-10-21T19:59:14.881Z,68.96
2022-10-21T20:01:42.630Z,68.99
2022-10-21T20:04:09.839Z,68.84
2022-10-21T20:06:38.320Z,68.83
2022-10-21T20:09:08.313Z,68.77
2022-10-21T20:11:35.574Z,68.82
2022-10-21T20:14:04.328Z,68.93
2022-10-21T20:16:33.304Z,68.99
2022-10-21T20:19:01.149Z,68.93
2022-10-21T20:21:28.900Z,68.92
2022-10-21T20:23:57.924Z,68.81
2022-10-21T20:26:25.102Z,68.77
2022-10-21T20:28:52.493Z,68.77
2022-10-21T20:31:20.078Z,68.67
2022-10-21T20:33:48.794Z,68.74
2022-10-21T20:36:18.380Z,68.60
2022-10-21T20:38:45.788Z,68.67
2022-10-21T20:41:21.649Z,68.69
2022-10-21T20:43:49.243Z,68.68
2022-10-21T20:46:17.575Z,68.80
2022-10-21T20:48:46.783Z,68.90
2022-10-21T20:51:15.629Z,69.04
2022-10-21T20:56:15.898Z,69.45
2022-10-21T20:58:44.147Z,69.57
2022-10-21T21:01:12.561Z,69.91
2022-10-21T21:03:41.908Z,70.20
2022-10-21T21:06:10.069Z,70.33
2022-10-21T21:08:44.572Z,70.62
2022-10-21T21:11:17.213Z,70.77
2022-10-21T21:13:44.963Z,70.89
2022-10-21T21:16:13.851Z,71.23
2022-10-21T21:18:42.759Z,71.25
2022-10-21T21:21:12.500Z,71.47
2022-10-21T21:23:40.866Z,71.72
2022-10-21T21:26:10.750Z,71.86
2022-10-21T21:28:39.259Z,72.06
2022-10-21T21:31:10.527Z,72.09
2022-10-21T21:33:38.116Z,72.09
2022-10-21T21:36:06.907Z,72.07
2022-10-21T21:38:35.995Z,72.23
2022-10-21T21:41:06.686Z,72.27
2022-10-21T21:43:37.076Z,72.35
2022-10-21T21:46:04.654Z,72.52
2022-10-21T21:48:33.428Z,72.65
2022-10-21T21:51:05.514Z,72.66
2022-10-21T21:53:33.049Z,72.78
2022-10-21T21:56:03.645Z,72.83
2022-10-21T21:58:31.644Z,72.82
2022-10-21T22:00:58.802Z,73.02
2022-10-21T22:03:26.227Z,73.17
2022-10-21T22:05:53.240Z,73.29
2022-10-21T22:08:20.649Z,73.35
2022-10-21T22:10:47.826Z,73.48
2022-10-21T22:13:14.837Z,73.57
2022-10-21T22:15:48.150Z,73.60
2022-10-21T22:18:16.009Z,73.67
2022-10-21T22:20:43.122Z,73.65
2022-10-21T22:23:10.233Z,73.85
2022-10-21T22:25:37.484Z,73.79
2022-10-21T22:28:04.830Z,73.84
2022-10-21T22:30:32.018Z,73.86
2022-10-21T22:32:59.015Z,73.89
2022-10-21T22:35:27.300Z,74.01
2022-10-21T22:37:54.438Z,74.09
2022-10-21T22:40:22.092Z,74.11
2022-10-21T22:42:49.243Z,74.10
2022-10-21T22:45:16.504Z,74.25
2022-10-21T22:47:43.541Z,74.35
2022-10-21T22:50:11.661Z,74.45
2022-10-21T22:52:42.459Z,74.57
2022-10-21T22:55:11.423Z,74.69
2022-10-21T22:57:38.593Z,74.82
2022-10-21T23:00:07.326Z,74.98
2022-10-21T23:02:34.364Z,75.18
2022-10-21T23:05:01.414Z,75.36
2022-10-21T23:07:28.556Z,75.49
2022-10-21T23:09:55.568Z,75.68
2022-10-21T23:12:22.723Z,75.97
2022-10-21T23:14:49.853Z,76.18
2022-10-21T23:17:16.843Z,76.27
2022-10-21T23:19:43.914Z,76.42
2022-10-21T23:22:11.634Z,76.63
2022-10-21T23:24:38.915Z,76.74
2022-10-21T23:27:06.678Z,77.03
2022-10-21T23:29:33.937Z,77.05
2022-10-21T23:32:00.887Z,77.02
2022-10-21T23:34:28.003Z,77.23
2022-10-21T23:36:55.148Z,77.34
2022-10-21T23:39:22.590Z,77.30
2022-10-21T23:41:49.759Z,77.39
2022-10-21T23:44:16.823Z,77.45
2022-10-21T23:46:44.026Z,77.60
2022-10-21T23:49:11.149Z,77.56
2022-10-21T23:51:38.418Z,77.70
2022-10-21T23:54:05.916Z,77.67
2022-10-21T23:56:33.578Z,77.70
2022-10-21T23:59:01.809Z,77.78
